createdAt,value
2023-03-22T00:04:26.394Z,15.55
2023-03-22T00:09:27.887Z,11.07
2023-03-22T00:14:29.399Z,11.88
2023-03-22T00:19:33.825Z,11.43
2023-03-22T00:24:35.310Z,12.07
2023-03-22T00:29:36.902Z,12.73
2023-03-22T00:34:38.394Z,14.63
2023-03-22T00:39:39.943Z,15.23
2023-03-22T00:44:41.471Z,10.65
2023-03-22T00:49:43.007Z,11.88
2023-03-22T00:54:44.521Z,10.00
2023-03-22T00:59:46.581Z,13.27
2023-03-22T01:04:48.318Z,15.75
2023-03-22T01:09:51.410Z,10.10
2023-03-22T01:14:52.881Z,15.50
2023-03-22T01:19:54.335Z,14.18
2023-03-22T01:24:55.948Z,15.80
2023-03-22T01:29:57.501Z,13.25
2023-03-22T01:34:59.013Z,11.68
2023-03-22T01:40:00.602Z,15.13
2023-03-22T01:45:13.944Z,12.52
2023-03-22T01:50:17.168Z,13.80
2023-03-22T01:55:22.669Z,22.05
2023-03-22T02:00:24.301Z,14.73
2023-03-22T02:05:26.638Z,19.13
2023-03-22T02:10:28.517Z,14.98
2023-03-22T02:15:34.048Z,16.63
2023-03-22T02:21:02.408Z,21.50
2023-03-22T02:26:35.900Z,15.10
2023-03-22T02:32:08.772Z,22.23
2023-03-22T02:37:28.947Z,14.45
2023-03-22T02:42:57.780Z,15.40
2023-03-22T02:48:30.828Z,13.82
2023-03-22T02:53:57.577Z,16.17
2023-03-22T02:59:03.927Z,17.17
2023-03-22T03:04:11.997Z,19.25
2023-03-22T03:09:18.020Z,15.57
2023-03-22T03:14:26.436Z,13.20
2023-03-22T03:19:41.024Z,15.45
2023-03-22T03:24:56.157Z,17.20
2023-03-22T03:30:08.500Z,12.38
2023-03-22T03:35:51.911Z,19.02
2023-03-22T03:41:02.072Z,13.60
2023-03-22T03:46:03.791Z,16.92
2023-03-22T03:51:05.516Z,16.63
2023-03-22T03:56:07.505Z,22.23
2023-03-22T04:01:09.020Z,15.38
2023-03-22T04:06:10.502Z,19.70
2023-03-22T04:11:12.001Z,18.77
2023-03-22T04:16:18.447Z,16.00
2023-03-22T04:21:21.672Z,20.58
2023-03-22T04:26:25.525Z,17.50
2023-03-22T04:31:28.307Z,15.85
2023-03-22T04:36:31.206Z,19.65
2023-03-22T04:41:33.712Z,18.80
2023-03-22T04:46:36.776Z,20.13
2023-03-22T04:51:38.346Z,19.63
2023-03-22T04:56:39.875Z,20.40
2023-03-22T05:01:42.560Z,26.33
2023-03-22T05:06:44.620Z,25.55
2023-03-22T05:11:46.225Z,22.67
2023-03-22T05:16:47.692Z,28.33
2023-03-22T05:21:49.227Z,19.45
2023-03-22T05:26:53.741Z,24.45
2023-03-22T05:31:55.339Z,24.08
2023-03-22T05:36:57.236Z,21.83
2023-03-22T05:41:58.757Z,25.75
2023-03-22T05:47:00.533Z,23.92
2023-03-22T05:52:06.110Z,30.08
2023-03-22T05:57:07.668Z,26.02
2023-03-22T06:02:11.827Z,21.33
2023-03-22T06:07:13.922Z,25.85
2023-03-22T06:12:17.000Z,24.48
2023-03-22T06:17:19.489Z,21.95
2023-03-22T06:22:21.318Z,23.95
2023-03-22T06:27:22.873Z,23.52
2023-03-22T06:32:24.653Z,21.55
2023-03-22T06:37:26.191Z,20.65
2023-03-22T06:42:30.798Z,17.80
2023-03-22T06:47:32.345Z,23.92
2023-03-22T06:52:33.896Z,23.02
2023-03-22T06:57:35.464Z,21.17
2023-03-22T07:02:36.979Z,20.55
2023-03-22T07:07:38.501Z,17.80
2023-03-22T07:12:40.533Z,18.08
2023-03-22T07:17:42.242Z,16.90
2023-03-22T07:22:43.768Z,19.13
2023-03-22T07:27:45.323Z,16.80
2023-03-22T07:32:46.827Z,19.17
2023-03-22T07:37:48.797Z,15.82
2023-03-22T07:42:51.196Z,14.85
2023-03-22T07:47:52.714Z,18.83
2023-03-22T07:52:54.297Z,16.23
2023-03-22T07:57:56.516Z,14.40
2023-03-22T08:02:58.273Z,11.00
2023-03-22T08:07:59.785Z,15.07
2023-03-22T08:13:01.327Z,15.10
2023-03-22T08:18:02.803Z,12.32
2023-03-22T08:23:04.440Z,15.43
2023-03-22T08:28:06.176Z,16.20
2023-03-22T08:33:07.899Z,15.07
2023-03-22T08:38:09.437Z,16.17
2023-03-22T08:43:11.400Z,15.23
2023-03-22T08:48:13.070Z,13.13
2023-03-22T08:53:14.668Z,14.18
2023-03-22T08:58:16.763Z,20.00
2023-03-22T09:03:18.409Z,17.05
2023-03-22T09:08:20.485Z,17.50
2023-03-22T09:13:22.110Z,19.35
2023-03-22T09:18:24.433Z,14.30
2023-03-22T09:23:26.452Z,19.35
2023-03-22T09:28:29.679Z,15.10
2023-03-22T09:33:31.278Z,18.27
2023-03-22T09:38:33.864Z,18.35
2023-03-22T09:43:42.736Z,17.05
2023-03-22T09:48:48.334Z,12.02
2023-03-22T09:53:50.714Z,15.23
2023-03-22T09:59:05.588Z,16.83
2023-03-22T10:04:26.573Z,9.48
2023-03-22T10:09:37.230Z,12.18
2023-03-22T10:14:56.546Z,15.63
2023-03-22T10:20:19.628Z,14.35
2023-03-22T10:25:27.898Z,15.77
2023-03-22T10:30:37.893Z,16.38
2023-03-22T10:35:40.025Z,15.35
2023-03-22T10:40:42.631Z,16.42
2023-03-22T10:45:44.456Z,12.60
2023-03-22T10:50:46.405Z,11.00
2023-03-22T10:55:48.204Z,14.60
2023-03-22T11:01:25.262Z,16.88
2023-03-22T11:06:36.969Z,12.52
2023-03-22T11:11:53.454Z,12.68
2023-03-22T11:17:08.725Z,14.27
2023-03-22T11:22:42.630Z,16.60
2023-03-22T11:27:53.636Z,12.90
2023-03-22T11:33:19.391Z,18.00
2023-03-22T11:38:36.989Z,10.88
2023-03-22T11:43:48.254Z,16.80
2023-03-22T11:48:52.717Z,15.43
2023-03-22T11:54:07.629Z,11.15
2023-03-22T11:59:16.644Z,13.43
2023-03-22T12:04:24.554Z,15.43
2023-03-22T12:09:43.414Z,13.68
2023-03-22T12:15:24.238Z,13.95
2023-03-22T12:20:40.065Z,17.35
2023-03-22T12:25:52.975Z,13.75
2023-03-22T12:30:57.844Z,12.63
2023-03-22T12:36:02.990Z,13.30
2023-03-22T12:41:10.618Z,11.93
2023-03-22T12:56:37.473Z,16.02
2023-03-22T13:01:57.743Z,11.38
2023-03-22T13:07:14.839Z,13.18
2023-03-22T13:12:18.921Z,14.30
2023-03-22T13:17:23.437Z,12.75
2023-03-22T13:22:30.445Z,15.85
2023-03-22T13:27:37.937Z,12.52
2023-03-22T13:37:49.324Z,11.32
2023-03-22T13:42:51.579Z,13.57
2023-03-22T13:48:28.337Z,14.10
2023-03-22T13:53:30.957Z,11.77
2023-03-22T13:58:53.130Z,12.02
2023-03-22T14:03:58.546Z,15.27
2023-03-22T14:09:13.376Z,13.25
2023-03-22T14:14:22.281Z,13.75
2023-03-22T14:19:27.986Z,12.85
